Time;durP1;ratioP1;P1;durP2;ratioP2;P2;SDS_P1;SDS_P2;PMS_P1;PMS_P2;Temp;Humidity;BMP_temperature;BMP_pressure;BME280_temperature;BME280_humidity;BME280_pressure;Samples;Min_cycle;Max_cycle;Signal;HPM_P1;HPM_P2
2022/01/08 00:01:35;;;;;;;27.33;14.85;;;;;;;-0.72;100.00;100863.06;4984958;28;20038;-85
2022/01/08 00:04:00;;;;;;;25.27;14.40;;;;;;;-0.79;100.00;100854.41;4969789;28;20032;-85
2022/01/08 00:06:26;;;;;;;27.65;14.98;;;;;;;-0.79;100.00;100857.03;4975170;28;20089;-85
2022/01/08 00:08:51;;;;;;;26.60;14.82;;;;;;;-0.77;100.00;100876.16;4984936;28;20037;-85
2022/01/08 00:11:20;;;;;;;26.35;16.10;;;;;;;-0.86;100.00;100873.59;4986831;28;20041;-85
2022/01/08 00:13:45;;;;;;;31.45;18.10;;;;;;;-0.81;100.00;100879.66;4983559;28;20109;-85
2022/01/08 00:16:11;;;;;;;39.78;19.20;;;;;;;-0.90;100.00;100874.47;4970258;28;20109;-86
2022/01/08 00:18:36;;;;;;;35.08;18.85;;;;;;;-0.90;100.00;100872.72;4972955;28;20472;-84
2022/01/08 00:21:01;;;;;;;33.72;18.35;;;;;;;-0.89;100.00;100881.44;4968358;28;20030;-86
2022/01/08 00:23:27;;;;;;;37.45;18.05;;;;;;;-0.87;100.00;100898.00;4975841;28;20101;-85
2022/01/08 00:25:52;;;;;;;31.30;17.95;;;;;;;-0.88;100.00;100896.22;4971539;28;20026;-85
2022/01/08 00:28:17;;;;;;;31.80;17.85;;;;;;;-0.97;100.00;100884.06;4986701;28;20037;-85
2022/01/08 00:30:43;;;;;;;30.08;17.55;;;;;;;-0.93;100.00;100888.41;4986036;28;20057;-86
2022/01/08 00:33:08;;;;;;;26.85;16.02;;;;;;;-1.05;100.00;100870.16;4976589;28;20022;-85
2022/01/08 00:35:33;;;;;;;38.05;18.73;;;;;;;-0.91;100.00;100886.69;4979037;28;20358;-85
2022/01/08 00:38:00;;;;;;;31.23;16.92;;;;;;;-0.91;100.00;100893.66;4960611;28;20022;-85
2022/01/08 00:40:25;;;;;;;34.08;17.58;;;;;;;-0.98;100.00;100898.00;4973318;28;20035;-86
2022/01/08 00:42:51;;;;;;;28.63;15.45;;;;;;;-1.03;100.00;100882.34;4968892;28;20519;-84
2022/01/08 00:45:16;;;;;;;27.13;16.05;;;;;;;-0.94;100.00;100897.13;4969051;28;20022;-85
2022/01/08 00:47:42;;;;;;;29.30;15.85;;;;;;;-0.97;100.00;100888.44;4971419;28;20037;-84
2022/01/08 00:50:08;;;;;;;33.20;16.10;;;;;;;-0.92;100.00;100904.94;4968239;28;20027;-85
2022/01/08 00:52:33;;;;;;;28.00;16.70;;;;;;;-0.93;100.00;100908.44;4968802;28;20055;-85
2022/01/08 00:54:58;;;;;;;31.35;16.67;;;;;;;-0.96;100.00;100914.56;4969260;28;20480;-85
2022/01/08 00:57:24;;;;;;;30.60;16.60;;;;;;;-0.94;100.00;100918.03;4971976;28;20113;-86
2022/01/08 00:59:49;;;;;;;32.47;17.60;;;;;;;-0.91;100.00;100919.78;4975780;28;20362;-85
2022/01/08 01:02:14;;;;;;;30.77;17.73;;;;;;;-0.96;100.00;100918.91;4968773;28;20114;-85
2022/01/08 01:04:39;;;;;;;29.88;17.33;;;;;;;-0.96;100.00;100913.66;4967867;28;20023;-85
2022/01/08 01:07:05;;;;;;;33.33;20.33;;;;;;;-1.03;100.00;100905.00;4977956;28;20305;-85
2022/01/08 01:09:30;;;;;;;33.33;18.65;;;;;;;-0.88;100.00;100918.03;4969221;28;20079;-85
2022/01/08 01:11:57;;;;;;;33.78;18.13;;;;;;;-0.88;100.00;100910.19;4968354;28;20477;-85
2022/01/08 01:14:24;;;;;;;35.47;19.10;;;;;;;-0.87;100.00;100909.31;4968868;28;20033;-84
2022/01/08 01:16:49;;;;;;;32.90;18.40;;;;;;;-0.89;100.00;100904.94;4983986;28;20065;-84
2022/01/08 01:19:14;;;;;;;33.97;19.38;;;;;;;-0.98;100.00;100897.16;4969885;28;20473;-85
2022/01/08 01:21:40;;;;;;;32.88;19.08;;;;;;;-0.99;100.00;100909.34;4968806;28;20476;-85
2022/01/08 01:24:12;;;;;;;32.00;19.52;;;;;;;-0.94;100.00;100919.78;4968009;28;20074;-85
2022/01/08 01:26:42;;;;;;;39.25;20.42;;;;;;;-1.01;100.00;100898.88;4959383;28;20023;-85
2022/01/08 01:48:15;;;;;;;;;;;;;;;-1.06;100.00;100925.91;4930825;29;20059;-86
2022/01/08 01:50:40;;;;;;;39.33;22.20;;;;;;;-1.06;100.00;100938.97;4931702;29;19919;-85
2022/01/08 01:53:06;;;;;;;42.13;22.52;;;;;;;-1.09;100.00;100929.38;4931671;29;20066;-85
2022/01/08 01:55:31;;;;;;;41.58;23.00;;;;;;;-1.14;100.00;100911.97;4937337;29;20043;-85
2022/01/08 01:57:57;;;;;;;41.70;22.65;;;;;;;-1.14;100.00;100919.81;4940931;28;20035;-86
2022/01/08 02:00:22;;;;;;;44.20;22.63;;;;;;;-1.10;100.00;100935.47;4930536;29;20481;-86
2022/01/08 02:02:47;;;;;;;41.30;21.90;;;;;;;-1.13;100.00;100932.00;4930323;29;20622;-86
2022/01/08 02:05:13;;;;;;;41.22;23.73;;;;;;;-1.13;100.00;100925.06;4949435;28;20022;-85
2022/01/08 02:07:38;;;;;;;46.05;24.00;;;;;;;-1.16;100.00;100912.00;4957457;28;20041;-86
2022/01/08 02:10:04;;;;;;;41.55;22.77;;;;;;;-1.20;100.00;100917.22;4969011;28;20035;-86
2022/01/08 02:12:32;;;;;;;44.33;22.45;;;;;;;-1.19;100.00;100926.78;4963376;28;20480;-86
2022/01/08 02:14:57;;;;;;;39.97;21.92;;;;;;;-1.22;100.00;100926.78;4974584;28;20082;-86
2022/01/08 02:17:22;;;;;;;36.85;21.73;;;;;;;-1.22;100.00;100930.25;4978217;28;20436;-85
2022/01/08 02:19:52;;;;;;;43.17;22.77;;;;;;;-1.28;100.00;100919.84;4971733;28;20035;-86
2022/01/08 02:22:17;;;;;;;46.38;23.60;;;;;;;-1.25;100.00;100930.28;4971493;28;20041;-86
2022/01/08 02:24:44;;;;;;;41.97;22.33;;;;;;;-1.31;100.00;100920.69;4971276;28;20022;-86
2022/01/08 02:27:10;;;;;;;39.00;22.70;;;;;;;-1.28;100.00;100933.75;4985486;28;20022;-86
2022/01/08 02:29:35;;;;;;;37.47;21.75;;;;;;;-1.33;100.00;100916.38;4986761;28;20072;-86
2022/01/08 02:32:07;;;;;;;36.90;21.45;;;;;;;-1.27;100.00;100932.03;4975223;28;20031;-85
2022/01/08 02:34:33;;;;;;;38.67;23.05;;;;;;;-1.28;100.00;100935.50;4954162;28;20476;-86
2022/01/08 02:37:00;;;;;;;45.45;22.80;;;;;;;-1.42;100.00;100914.66;4990264;28;20034;-85
2022/01/08 02:39:26;;;;;;;38.88;23.42;;;;;;;-1.31;100.00;100932.91;4974975;28;20150;-86
2022/01/08 02:41:56;;;;;;;47.80;22.08;;;;;;;-1.32;100.00;100939.00;4970792;28;20027;-86
2022/01/08 02:44:23;;;;;;;39.25;22.35;;;;;;;-1.39;100.00;100925.06;4984477;28;20038;-86
2022/01/08 02:46:48;;;;;;;44.28;23.80;;;;;;;-1.31;100.00;100941.59;4986619;28;20477;-86
2022/01/08 02:49:14;;;;;;;46.80;24.15;;;;;;;-1.30;100.00;100945.06;4988408;28;20389;-86
2022/01/08 02:51:39;;;;;;;47.15;24.08;;;;;;;-1.31;100.00;100943.34;4990686;28;20026;-86
2022/01/08 02:54:10;;;;;;;42.67;23.48;;;;;;;-1.28;100.00;100951.19;4987694;28;20085;-86
2022/01/08 02:56:44;;;;;;;47.63;23.23;;;;;;;-1.24;100.00;100952.06;4974847;28;20073;-84
2022/01/08 02:59:09;;;;;;;41.83;22.35;;;;;;;-1.30;100.00;100937.25;4974156;28;20047;-85
2022/01/08 03:01:35;;;;;;;48.00;25.60;;;;;;;-1.18;100.00;100949.41;4970676;28;20365;-85
2022/01/08 03:04:01;;;;;;;42.88;23.90;;;;;;;-1.14;100.00;100938.97;4972583;28;20030;-85
2022/01/08 03:06:27;;;;;;;44.38;23.38;;;;;;;-1.12;100.00;100945.06;4970795;28;20299;-85
2022/01/08 03:08:52;;;;;;;39.63;23.60;;;;;;;-1.09;100.00;100939.81;4979087;28;20045;-85
2022/01/08 03:11:17;;;;;;;44.92;23.60;;;;;;;-1.14;100.00;100936.34;4977839;28;20035;-85
2022/01/08 03:13:43;;;;;;;43.63;23.35;;;;;;;-1.16;100.00;100940.72;4970782;28;20035;-86
2022/01/08 03:16:08;;;;;;;38.13;22.60;;;;;;;-1.17;100.00;100938.09;4971327;28;20038;-86
2022/01/08 03:18:37;;;;;;;40.92;24.30;;;;;;;-1.19;100.00;100939.84;4953281;28;20029;-86
2022/01/08 03:21:13;;;;;;;44.00;23.25;;;;;;;-1.24;100.00;100937.25;4970002;28;20225;-85
2022/01/08 03:23:46;;;;;;;41.75;23.00;;;;;;;-1.23;100.00;100941.59;4970973;28;20038;-85
2022/01/08 03:26:12;;;;;;;39.70;22.65;;;;;;;-1.24;100.00;100942.47;4974767;28;20030;-85
2022/01/08 03:28:37;;;;;;;39.55;21.65;;;;;;;-1.26;100.00;100945.06;4981029;28;20033;-86
2022/01/08 03:31:02;;;;;;;46.90;23.20;;;;;;;-1.26;100.00;100947.69;4970061;28;20027;-85
2022/01/08 03:33:28;;;;;;;45.88;22.65;;;;;;;-1.19;100.00;100950.28;4979805;28;20121;-85
2022/01/08 03:35:53;;;;;;;41.75;23.15;;;;;;;-1.24;100.00;100950.31;4974797;28;20026;-85
2022/01/08 03:38:19;;;;;;;47.58;22.85;;;;;;;-1.19;100.00;100951.16;4974856;28;20089;-86
2022/01/08 03:40:44;;;;;;;40.35;23.88;;;;;;;-1.18;100.00;100947.66;4969872;28;20102;-86
2022/01/08 03:43:09;;;;;;;42.05;23.30;;;;;;;-1.19;100.00;100960.75;4979231;28;20038;-86
2022/01/08 03:45:34;;;;;;;39.40;23.02;;;;;;;-1.23;100.00;100954.66;4970009;28;20389;-86
2022/01/08 03:50:44;;;;;;;42.77;23.67;;;;;;;-1.24;100.00;100949.44;4969755;28;20388;-85
2022/01/08 03:53:09;;;;;;;39.35;24.20;;;;;;;-1.36;100.00;100929.44;4969420;28;20712;-85
2022/01/08 03:55:34;;;;;;;37.30;23.05;;;;;;;-1.27;100.00;100945.94;4970232;28;20039;-86
2022/01/08 03:58:00;;;;;;;38.63;22.80;;;;;;;-1.31;100.00;100932.91;4968946;28;20030;-86
2022/01/08 04:00:25;;;;;;;40.05;23.38;;;;;;;-1.36;100.00;100924.19;4969420;28;20047;-85
2022/01/08 04:02:52;;;;;;;41.50;23.30;;;;;;;-1.32;100.00;100939.88;4955698;28;20057;-86
2022/01/08 04:05:17;;;;;;;45.05;24.08;;;;;;;-1.39;100.00;100929.41;4975528;28;20113;-86
2022/01/08 04:07:42;;;;;;;42.13;23.60;;;;;;;-1.37;100.00;100938.13;4969276;28;20096;-86
2022/01/08 04:10:08;;;;;;;39.13;22.92;;;;;;;-1.40;100.00;100940.75;4969337;28;20502;-86
2022/01/08 04:12:42;;;;;;;46.10;23.33;;;;;;;-1.46;100.00;100940.72;4969273;28;20031;-86
2022/01/08 04:15:29;;;;;;;;;;;;;;;-1.39;100.00;100964.22;4968818;28;20027;-86
2022/01/08 04:17:54;;;;;;;35.10;22.30;;;;;;;-1.43;100.00;100961.63;4972196;28;19926;-86
2022/01/08 04:20:21;;;;;;;44.90;22.75;;;;;;;-1.44;100.00;100957.28;4968807;28;20061;-86
2022/01/08 04:22:49;;;;;;;42.10;23.33;;;;;;;-1.41;100.00;100965.97;4969285;28;20035;-86
2022/01/08 04:25:16;;;;;;;41.53;24.77;;;;;;;-1.36;100.00;100961.63;4967891;28;20054;-86
2022/01/08 04:27:41;;;;;;;45.42;24.92;;;;;;;-1.42;100.00;100964.25;4968089;28;20069;-86
2022/01/08 04:30:07;;;;;;;40.40;24.52;;;;;;;-1.38;100.00;100970.31;4951087;28;20464;-86
2022/01/08 04:32:32;;;;;;;42.15;24.08;;;;;;;-1.40;100.00;100972.94;4970205;28;20097;-86
2022/01/08 04:34:58;;;;;;;39.33;23.90;;;;;;;-1.45;100.00;100973.81;4997986;28;20054;-86
2022/01/08 04:37:23;;;;;;;43.28;24.27;;;;;;;-1.43;100.00;100980.75;4968812;28;20054;-86
2022/01/08 04:39:49;;;;;;;43.95;24.27;;;;;;;-1.45;100.00;100979.03;4968678;28;20510;-85
2022/01/08 04:42:14;;;;;;;43.38;23.75;;;;;;;-1.44;100.00;100975.56;4982808;28;20117;-86
2022/01/08 04:44:39;;;;;;;43.30;25.17;;;;;;;-1.47;100.00;100979.03;4988359;28;20035;-85
2022/01/08 04:47:05;;;;;;;43.97;23.80;;;;;;;-1.41;100.00;100981.66;4974572;28;20563;-85
2022/01/08 04:49:30;;;;;;;42.65;25.00;;;;;;;-1.43;100.00;100970.31;4978862;28;20054;-86
2022/01/08 04:51:56;;;;;;;39.95;23.50;;;;;;;-1.38;100.00;100986.88;4987704;28;20035;-86
2022/01/08 04:54:21;;;;;;;43.25;23.65;;;;;;;-1.45;100.00;100979.03;4974565;28;20121;-86
2022/01/08 04:56:47;;;;;;;46.03;22.45;;;;;;;-1.42;100.00;100994.69;4979852;28;20381;-86
2022/01/08 04:59:12;;;;;;;39.53;22.15;;;;;;;-1.45;100.00;100990.34;4968798;28;20105;-86
2022/01/08 05:01:37;;;;;;;38.40;21.95;;;;;;;-1.45;100.00;100997.31;4968680;28;20496;-85
2022/01/08 05:04:03;;;;;;;42.92;21.48;;;;;;;-1.53;100.00;100992.09;4985177;28;20034;-85
2022/01/08 05:06:28;;;;;;;34.80;19.90;;;;;;;-1.47;100.00;101006.88;4981049;28;20507;-86
2022/01/08 05:08:53;;;;;;;37.63;21.23;;;;;;;-1.46;100.00;101006.88;4991379;28;20038;-85
2022/01/08 05:11:19;;;;;;;38.85;22.40;;;;;;;-1.45;100.00;101002.53;4991376;28;20035;-85
2022/01/08 05:13:45;;;;;;;38.55;22.35;;;;;;;-1.45;100.00;100998.19;4991940;28;20084;-86
2022/01/08 05:16:10;;;;;;;40.35;21.38;;;;;;;-1.43;100.00;101012.09;4979690;28;20035;-86
2022/01/08 05:18:36;;;;;;;37.75;20.42;;;;;;;-1.51;100.00;101006.84;4977419;28;20050;-85
2022/01/08 05:21:24;;;;;;;32.33;20.02;;;;;;;-1.51;100.00;101011.22;4986704;28;20257;-85
2022/01/08 05:23:49;;;;;;;39.30;21.13;;;;;;;-1.46;100.00;101013.81;4985494;28;20089;-85
2022/01/08 05:26:15;;;;;;;34.55;19.55;;;;;;;-1.46;100.00;101012.09;4973765;28;20030;-85
2022/01/08 05:28:41;;;;;;;40.65;20.38;;;;;;;-1.38;100.00;101018.22;4973573;28;20101;-85
2022/01/08 05:31:06;;;;;;;44.05;21.52;;;;;;;-1.45;100.00;100998.19;4972636;28;20041;-85
2022/01/08 05:33:31;;;;;;;40.17;20.48;;;;;;;-1.46;100.00;101006.88;4973448;28;20547;-85
2022/01/08 05:35:57;;;;;;;38.22;19.58;;;;;;;-1.44;100.00;101012.09;4954712;28;20047;-85
2022/01/08 05:38:22;;;;;;;36.13;19.42;;;;;;;-1.46;100.00;101016.44;4981986;28;20042;-85
2022/01/08 05:40:47;;;;;;;38.42;19.77;;;;;;;-1.49;100.00;101019.06;4988130;28;20042;-85
2022/01/08 05:43:13;;;;;;;35.38;19.08;;;;;;;-1.50;100.00;101018.19;4987687;28;20073;-86
2022/01/08 05:45:38;;;;;;;38.33;20.88;;;;;;;-1.45;100.00;101010.38;4981396;28;20534;-85
2022/01/08 05:48:05;;;;;;;33.00;20.25;;;;;;;-1.39;100.00;100999.91;4971377;28;20484;-85
2022/01/08 05:50:30;;;;;;;37.95;21.23;;;;;;;-1.30;100.00;101000.78;4971888;28;20491;-86
2022/01/08 05:52:55;;;;;;;37.00;20.80;;;;;;;-1.27;100.00;101015.59;4972598;28;20031;-85
2022/01/08 05:55:21;;;;;;;39.95;20.15;;;;;;;-1.30;100.00;101010.34;4975350;28;20572;-85
2022/01/08 05:57:46;;;;;;;38.55;20.67;;;;;;;-1.32;100.00;101020.81;4986925;28;20088;-85
2022/01/08 06:00:11;;;;;;;35.03;19.58;;;;;;;-1.34;100.00;101016.44;4974836;28;20043;-86
2022/01/08 06:02:37;;;;;;;35.40;19.85;;;;;;;-1.36;100.00;101019.06;4971705;28;20062;-85
2022/01/08 06:05:04;;;;;;;36.75;18.52;;;;;;;-1.41;100.00;101023.41;4971814;28;20027;-86
2022/01/08 06:07:30;;;;;;;34.67;19.55;;;;;;;-1.42;100.00;101026.00;4972375;28;20035;-86
2022/01/08 06:09:55;;;;;;;37.50;19.33;;;;;;;-1.51;100.00;101030.34;4970758;28;20042;-85
2022/01/08 06:12:20;;;;;;;34.53;19.45;;;;;;;-1.49;100.00;101037.34;4988352;28;20322;-85
2022/01/08 06:14:46;;;;;;;33.58;19.08;;;;;;;-1.43;100.00;101040.81;4978734;28;20394;-85
2022/01/08 06:17:11;;;;;;;38.42;21.45;;;;;;;-1.38;100.00;101043.41;4980786;28;20035;-84
2022/01/08 06:19:36;;;;;;;43.75;21.75;;;;;;;-1.42;100.00;101036.44;4982242;28;20031;-83
2022/01/08 06:22:02;;;;;;;35.88;20.20;;;;;;;-1.32;100.00;101059.97;4976958;28;20053;-85
2022/01/08 06:24:28;;;;;;;41.35;21.58;;;;;;;-1.29;100.00;101054.78;4981062;28;20089;-85
2022/01/08 06:26:53;;;;;;;37.83;21.23;;;;;;;-1.26;100.00;101053.88;4972131;28;20507;-86
2022/01/08 06:29:18;;;;;;;41.35;20.27;;;;;;;-1.27;100.00;101049.53;4976947;28;20030;-85
2022/01/08 06:31:43;;;;;;;38.65;21.95;;;;;;;-1.33;100.00;101045.19;4977583;28;20472;-85
2022/01/08 06:34:09;;;;;;;39.28;20.77;;;;;;;-1.29;100.00;101039.09;4970675;28;20040;-85
2022/01/08 06:36:34;;;;;;;41.08;20.27;;;;;;;-1.27;100.00;101042.56;4984826;28;20034;-86
2022/01/08 06:38:59;;;;;;;33.10;19.23;;;;;;;-1.21;100.00;101044.34;4989932;28;20033;-86
2022/01/08 06:41:25;;;;;;;35.33;19.63;;;;;;;-1.18;100.00;101038.22;4981994;28;20109;-86
2022/01/08 06:43:50;;;;;;;38.30;18.58;;;;;;;-1.19;100.00;101039.09;4971284;28;20030;-85
2022/01/08 06:46:15;;;;;;;36.45;18.92;;;;;;;-1.21;100.00;101030.38;4980232;28;20366;-86
2022/01/08 06:48:41;;;;;;;31.00;18.65;;;;;;;-1.27;100.00;101026.03;4975026;28;20043;-85
2022/01/08 06:51:07;;;;;;;34.22;18.13;;;;;;;-1.31;100.00;101019.06;4971619;28;20116;-86
2022/01/08 06:53:33;;;;;;;32.22;18.35;;;;;;;-1.33;100.00;101020.81;4978217;28;20039;-86
2022/01/08 06:55:58;;;;;;;36.25;18.25;;;;;;;-1.37;100.00;101025.16;4970500;28;20031;-87
2022/01/08 06:58:25;;;;;;;35.53;18.38;;;;;;;-1.54;100.00;100998.19;4970972;28;20388;-86
2022/01/08 07:00:51;;;;;;;29.65;17.27;;;;;;;-1.47;100.00;101015.56;4970742;28;20030;-86
2022/01/08 07:03:16;;;;;;;32.30;16.83;;;;;;;-1.45;100.00;101018.19;4972556;28;20026;-86
2022/01/08 07:05:41;;;;;;;33.33;16.90;;;;;;;-1.47;100.00;101017.31;4978541;28;20034;-86
2022/01/08 07:08:07;;;;;;;38.92;18.88;;;;;;;-1.51;100.00;101027.75;4969789;28;20075;-86
2022/01/08 07:10:33;;;;;;;37.05;18.38;;;;;;;-1.51;100.00;101017.28;4973380;28;20034;-89
2022/01/08 07:12:58;;;;;;;38.63;18.73;;;;;;;-1.53;100.00;101029.50;4955573;28;20031;-89
2022/01/08 07:15:24;;;;;;;30.10;17.65;;;;;;;-1.58;100.00;101022.53;4973215;28;20041;-90
2022/01/08 07:17:49;;;;;;;33.03;17.45;;;;;;;-1.58;100.00;101025.16;4976940;28;20085;-88
2022/01/08 07:20:15;;;;;;;36.75;19.02;;;;;;;-1.59;100.00;101025.97;4989537;28;20034;-90
2022/01/08 07:22:40;;;;;;;35.92;18.02;;;;;;;-1.64;100.00;101025.97;4982873;28;20025;-88
2022/01/08 07:25:06;;;;;;;37.80;18.50;;;;;;;-1.63;100.00;101026.84;4970172;28;20030;-90
2022/01/08 07:27:35;;;;;;;39.35;18.08;;;;;;;-1.62;100.00;101031.22;4953263;28;20015;-90
2022/01/08 07:30:03;;;;;;;38.85;18.70;;;;;;;-1.61;100.00;101036.44;4971212;28;20025;-89
2022/01/08 07:32:28;;;;;;;41.05;17.90;;;;;;;-1.60;100.00;101030.34;4982589;28;20033;-89
2022/01/08 07:34:54;;;;;;;39.92;18.67;;;;;;;-1.53;100.00;101032.09;4971801;28;20027;-96
2022/01/08 07:37:19;;;;;;;34.63;17.80;;;;;;;-1.56;100.00;101016.44;4973300;28;20058;-91
2022/01/08 07:39:45;;;;;;;40.55;18.65;;;;;;;-1.44;100.00;101023.41;4990659;28;20061;-93
2022/01/08 07:42:10;;;;;;;44.40;18.20;;;;;;;-1.39;100.00;101023.41;4992720;28;20034;-93
2022/01/08 07:44:35;;;;;;;38.72;18.00;;;;;;;-1.46;100.00;101011.22;4968394;28;20073;-94
2022/01/08 07:47:01;;;;;;;39.53;17.52;;;;;;;-1.33;100.00;101020.81;4980236;28;20038;-93
2022/01/08 07:49:27;;;;;;;41.80;18.65;;;;;;;-1.29;100.00;101025.19;4974003;28;20046;-94
2022/01/08 07:51:52;;;;;;;42.60;17.35;;;;;;;-1.29;100.00;101019.94;4989489;28;20042;-96
2022/01/08 07:54:17;;;;;;;42.80;18.42;;;;;;;-1.28;100.00;101009.50;4986661;28;20065;-92
2022/01/08 07:56:43;;;;;;;46.83;18.40;;;;;;;-1.16;100.00;101028.66;4988783;28;20038;-93
2022/01/08 07:59:08;;;;;;;40.53;18.67;;;;;;;-1.14;100.00;101019.94;4990840;28;20105;-94
2022/01/08 08:01:33;;;;;;;41.95;19.25;;;;;;;-1.07;100.00;101020.81;4971463;28;20027;-92
2022/01/08 08:03:59;;;;;;;43.90;20.65;;;;;;;-1.04;100.00;101008.63;4987317;28;20034;-93
2022/01/08 08:06:24;;;;;;;49.05;20.75;;;;;;;-1.01;100.00;101008.59;4983979;28;20030;-93
2022/01/08 08:08:50;;;;;;;40.35;20.17;;;;;;;-1.02;100.00;100992.94;4989532;28;20373;-93
2022/01/08 08:11:15;;;;;;;44.08;19.92;;;;;;;-0.93;100.00;101002.50;4981411;28;20026;-93
2022/01/08 08:13:40;;;;;;;50.47;19.70;;;;;;;-0.98;100.00;100991.19;4970458;28;20038;-91
2022/01/08 08:16:07;;;;;;;44.92;19.67;;;;;;;-0.92;100.00;101001.63;4981695;28;20038;-88
2022/01/08 08:18:32;;;;;;;44.17;19.83;;;;;;;-0.84;100.00;101005.09;4989360;28;20030;-93
2022/01/08 08:20:57;;;;;;;39.67;20.10;;;;;;;-0.82;100.00;101003.38;4974340;28;20129;-94
2022/01/08 08:23:23;;;;;;;52.80;20.20;;;;;;;-0.80;100.00;101009.44;4980452;28;20112;-94
2022/01/08 08:25:48;;;;;;;51.15;21.30;;;;;;;-0.79;100.00;100993.78;4965800;28;20031;-86
2022/01/08 08:28:13;;;;;;;48.92;21.65;;;;;;;-0.77;100.00;100996.38;4969548;28;20902;-91
2022/01/08 08:30:39;;;;;;;46.42;21.27;;;;;;;-0.79;100.00;100972.88;4971141;28;20026;-91
2022/01/08 08:33:04;;;;;;;51.13;22.17;;;;;;;-0.70;100.00;100987.66;4968031;28;20041;-93
2022/01/08 08:35:30;;;;;;;47.38;21.50;;;;;;;-0.71;100.00;100979.81;4978924;28;20035;-92
2022/01/08 08:37:55;;;;;;;46.58;21.88;;;;;;;-0.65;100.00;100985.91;4970594;28;20035;-92
2022/01/08 08:40:21;;;;;;;49.03;22.08;;;;;;;-0.77;100.00;100965.03;4978573;28;20054;-93
2022/01/08 08:42:46;;;;;;;48.10;22.38;;;;;;;-0.72;100.00;100967.63;4979811;28;20035;-90
2022/01/08 08:45:12;;;;;;;51.40;24.20;;;;;;;-0.60;100.00;100981.53;4959919;28;20437;-86
2022/01/08 08:47:39;;;;;;;47.50;22.85;;;;;;;-0.59;100.00;100985.00;4989351;28;20027;-91
2022/01/08 08:50:06;;;;;;;45.33;22.38;;;;;;;-0.68;100.00;100959.75;4988428;28;20117;-92
2022/01/08 08:52:32;;;;;;;47.85;23.30;;;;;;;-0.59;100.00;100970.19;4989667;28;20432;-91
2022/01/08 08:54:57;;;;;;;51.95;24.30;;;;;;;-0.61;100.00;100955.41;4965206;28;20026;-84
2022/01/08 08:57:22;;;;;;;55.35;24.45;;;;;;;-0.47;100.00;100974.50;4973870;28;20039;-93
2022/01/08 08:59:47;;;;;;;53.10;23.70;;;;;;;-0.44;100.00;100984.09;4969859;28;20115;-90
2022/01/08 09:02:13;;;;;;;55.00;24.55;;;;;;;-0.38;100.00;100986.69;4985963;28;20037;-82
2022/01/08 09:04:40;;;;;;;50.90;24.27;;;;;;;-0.35;100.00;100979.69;4980768;28;20077;-91
2022/01/08 09:07:05;;;;;;;53.15;24.85;;;;;;;-0.40;100.00;100957.94;4952098;28;20035;-91
2022/01/08 09:09:31;;;;;;;56.00;24.85;;;;;;;-0.37;100.00;100954.44;4970588;28;20485;-89
2022/01/08 09:11:56;;;;;;;61.72;27.20;;;;;;;-0.19;100.00;100983.13;4969493;28;20047;-89
2022/01/08 09:14:21;;;;;;;63.08;25.55;;;;;;;-0.14;100.00;100990.94;4968077;28;20210;-87
2022/01/08 09:16:50;;;;;;;58.70;24.00;;;;;;;-0.09;100.00;100986.56;4975325;28;20457;-89
2022/01/08 09:19:17;;;;;;;56.58;24.92;;;;;;;-0.06;100.00;100981.31;4984329;28;20053;-86
2022/01/08 09:21:43;;;;;;;50.78;25.65;;;;;;;-0.08;100.00;100977.84;4986672;28;20019;-86
2022/01/08 09:24:10;;;;;;;64.07;25.67;;;;;;;-0.03;100.00;100978.69;4987499;28;20550;-87
2022/01/08 09:26:35;;;;;;;58.95;25.25;;;;;;;-0.03;100.00;100965.59;4967997;28;20494;-87
2022/01/08 09:29:00;;;;;;;57.08;24.08;;;;;;;0.03;100.00;100962.06;4987768;28;20027;-86
2022/01/08 09:31:26;;;;;;;60.00;26.52;;;;;;;0.08;100.00;100949.81;4982219;28;20029;-86
2022/01/08 09:33:51;;;;;;;59.80;26.92;;;;;;;0.09;100.00;100941.13;4964563;28;20050;-87
2022/01/08 09:36:16;;;;;;;58.72;26.77;;;;;;;0.12;100.00;100939.31;4969528;28;20106;-88
2022/01/08 09:38:42;;;;;;;60.88;27.05;;;;;;;0.13;100.00;100929.75;4981463;28;20042;-89
2022/01/08 09:41:08;;;;;;;60.58;26.35;;;;;;;0.20;100.00;100931.41;4973087;28;20034;-90
2022/01/08 09:43:35;;;;;;;65.20;26.52;;;;;;;0.23;100.00;100920.94;4956596;28;20050;-89
2022/01/08 09:46:00;;;;;;;54.67;25.67;;;;;;;0.35;100.00;100926.09;4977017;28;20026;-88
2022/01/08 09:48:26;;;;;;;62.22;26.50;;;;;;;0.39;100.00;100921.69;4990152;28;20049;-89
2022/01/08 09:50:51;;;;;;;57.45;25.30;;;;;;;0.44;100.00;100917.28;4992337;28;20117;-89
2022/01/08 09:53:16;;;;;;;56.75;25.50;;;;;;;0.39;100.00;100912.09;4987676;28;20038;-89
2022/01/08 09:55:41;;;;;;;64.68;27.60;;;;;;;0.55;100.00;100915.47;4981077;28;20038;-88
2022/01/08 09:58:07;;;;;;;63.38;26.95;;;;;;;0.60;100.00;100899.69;4972772;28;20372;-91
2022/01/08 10:00:34;;;;;;;61.67;26.63;;;;;;;0.69;100.00;100887.38;4990485;28;20468;-90
2022/01/08 10:03:33;;;;;;;57.05;26.42;;;;;;;0.85;100.00;100892.47;4990630;28;20022;-90
2022/01/08 10:05:59;;;;;;;54.58;23.23;;;;;;;0.88;100.00;100895.94;4928813;28;20492;-89
2022/01/08 10:08:27;;;;;;;50.72;23.17;;;;;;;0.84;100.00;100883.75;4973902;28;20101;-88
2022/01/08 10:11:02;;;;;;;47.38;22.50;;;;;;;0.88;100.00;100881.94;4967444;28;20030;-87
2022/01/08 10:13:32;;;;;;;47.13;21.58;;;;;;;0.87;100.00;100869.72;4984021;28;20034;-88
2022/01/08 10:18:43;;;;;;;51.03;22.13;;;;;;;0.94;100.00;100861.78;4979465;28;20077;-87
2022/01/08 10:21:37;;;;;;;49.25;20.67;;;;;;;0.91;100.00;100842.59;4990562;28;20121;-88
2022/01/08 10:24:08;;;;;;;46.83;19.67;;;;;;;0.96;100.00;100841.69;4984850;28;20134;-88
2022/01/08 10:26:38;;;;;;;46.00;19.65;;;;;;;0.97;100.00;100813.72;4974637;28;20035;-88
2022/01/08 10:29:06;;;;;;;41.50;19.00;;;;;;;1.14;100.00;100817.00;4970796;28;20102;-89
2022/01/08 10:31:33;;;;;;;37.85;19.73;;;;;;;1.20;100.00;100800.31;4971856;28;20139;-87
2022/01/08 10:34:01;;;;;;;40.55;18.60;;;;;;;1.36;100.00;100809.72;4971688;28;20226;-88
2022/01/08 10:36:28;;;;;;;40.38;18.70;;;;;;;1.34;100.00;100784.38;4972721;28;20485;-88
2022/01/08 10:38:56;;;;;;;44.55;18.73;;;;;;;1.34;100.00;100801.00;4976838;28;20022;-88
2022/01/08 10:41:22;;;;;;;34.00;18.13;;;;;;;1.34;100.00;100805.34;4977193;28;20318;-87
2022/01/08 10:43:48;;;;;;;36.45;17.02;;;;;;;1.33;100.00;100803.63;4953607;28;20029;-87
2022/01/08 10:46:18;;;;;;;41.42;17.65;;;;;;;1.28;100.00;100800.22;4970776;28;20034;-92
2022/01/08 10:48:47;;;;;;;36.00;17.83;;;;;;;1.24;100.00;100781.03;4970340;28;20396;-89
2022/01/08 10:51:18;;;;;;;34.85;16.63;;;;;;;1.27;100.00;100783.63;4970217;28;20496;-88
2022/01/08 10:53:59;;;;;;;39.63;16.60;;;;;;;1.23;100.00;100761.81;4972726;28;20031;-90
2022/01/08 10:56:45;;;;;;;29.38;15.82;;;;;;;1.32;100.00;100768.69;4973963;28;20527;-90
2022/01/08 10:59:13;;;;;;;37.13;16.63;;;;;;;1.34;100.00;100747.66;4952922;28;20093;-89
2022/01/08 11:01:42;;;;;;;29.88;15.43;;;;;;;1.30;100.00;100741.63;4952399;28;20125;-88
2022/01/08 11:04:10;;;;;;;26.80;15.35;;;;;;;1.36;100.00;100740.66;4970230;28;20031;-88
2022/01/08 11:06:57;;;;;;;31.30;15.02;;;;;;;1.28;100.00;100717.16;4969659;28;20423;-89
2022/01/08 11:09:24;;;;;;;27.88;14.80;;;;;;;1.37;100.00;100717.03;4972532;28;20056;-90
2022/01/08 11:11:51;;;;;;;30.50;14.77;;;;;;;1.37;100.00;100717.03;4989219;28;20112;-90
2022/01/08 11:14:46;;;;;;;28.20;14.55;;;;;;;1.33;100.00;100710.09;4969714;28;20050;-89
2022/01/08 11:17:12;;;;;;;34.15;15.88;;;;;;;1.37;100.00;100701.28;4969681;28;20137;-89
2022/01/08 11:19:42;;;;;;;30.38;14.65;;;;;;;1.46;100.00;100701.16;4970178;28;20026;-89
2022/01/08 11:22:12;;;;;;;30.30;13.82;;;;;;;1.47;100.00;100674.06;4969975;28;20038;-89
2022/01/08 11:24:48;;;;;;;29.05;14.65;;;;;;;1.53;100.00;100669.59;4970597;28;20037;-89
2022/01/08 11:27:14;;;;;;;25.13;13.38;;;;;;;1.58;100.00;100671.22;4951685;28;20858;-88